createdAt,value
2018-09-12T00:00:09.602Z,57.20
2018-09-12T00:02:37.926Z,57.20
2018-09-12T00:05:06.264Z,57.10
2018-09-12T00:07:34.594Z,57.20
2018-09-12T00:10:02.937Z,57.40
2018-09-12T00:12:31.278Z,57.50
2018-09-12T00:14:59.595Z,57.70
2018-09-12T00:17:27.941Z,57.70
2018-09-12T00:19:56.242Z,57.90
2018-09-12T00:22:24.607Z,58.00
2018-09-12T00:24:52.941Z,58.10
2018-09-12T00:27:21.246Z,58.40
2018-09-12T00:29:49.592Z,58.60
2018-09-12T00:32:17.906Z,58.70
2018-09-12T00:34:46.230Z,58.70
2018-09-12T00:37:14.543Z,58.70
2018-09-12T00:39:42.881Z,58.60
2018-09-12T00:42:11.193Z,59.20
2018-09-12T00:44:39.549Z,58.60
2018-09-12T00:47:07.858Z,58.50
2018-09-12T00:49:36.182Z,58.60
2018-09-12T00:52:04.478Z,58.80
2018-09-12T00:54:32.795Z,58.90
2018-09-12T00:57:01.097Z,59.00
2018-09-12T00:59:29.454Z,59.10
2018-09-12T01:01:57.771Z,59.40
2018-09-12T01:04:26.130Z,59.30
2018-09-12T01:06:54.979Z,59.40
2018-09-12T01:09:23.318Z,59.30
2018-09-12T01:11:51.665Z,59.50
2018-09-12T01:14:21.026Z,59.40
2018-09-12T01:16:53.610Z,59.40
2018-09-12T01:19:21.942Z,59.60
2018-09-12T01:21:50.266Z,59.60
2018-09-12T01:24:18.650Z,59.70
2018-09-12T01:26:46.974Z,59.80
2018-09-12T01:29:15.531Z,59.70
2018-09-12T01:31:44.014Z,59.70
2018-09-12T01:34:12.442Z,59.80
2018-09-12T01:36:41.058Z,60.00
2018-09-12T01:39:10.314Z,59.90
2018-09-12T01:41:38.725Z,59.90
2018-09-12T01:44:07.180Z,60.10
2018-09-12T01:46:35.573Z,60.20
2018-09-12T01:49:03.918Z,60.40
2018-09-12T01:51:32.230Z,60.50
2018-09-12T01:54:00.569Z,60.60
2018-09-12T01:56:28.903Z,60.70
2018-09-12T01:58:57.256Z,60.60
2018-09-12T02:01:25.558Z,60.50
2018-09-12T02:03:53.909Z,60.50
2018-09-12T02:06:22.223Z,60.80
2018-09-12T02:08:50.569Z,61.00
2018-09-12T02:11:18.904Z,61.00
2018-09-12T02:13:47.249Z,60.90
2018-09-12T02:16:15.554Z,61.10
2018-09-12T02:18:43.889Z,61.20
2018-09-12T02:21:12.197Z,61.00
2018-09-12T02:23:40.542Z,61.00
2018-09-12T02:26:08.862Z,61.00
2018-09-12T02:28:37.200Z,61.20
2018-09-12T02:31:05.949Z,61.40
2018-09-12T02:33:34.291Z,61.40
2018-09-12T02:36:07.938Z,61.40
2018-09-12T02:38:36.290Z,61.50
2018-09-12T02:41:04.610Z,61.70
2018-09-12T02:43:32.921Z,61.70
2018-09-12T02:46:01.282Z,61.70
2018-09-12T02:48:29.608Z,61.60
2018-09-12T02:50:57.956Z,61.60
2018-09-12T02:53:26.282Z,61.70
2018-09-12T02:55:55.042Z,61.60
2018-09-12T02:58:23.355Z,61.70
2018-09-12T03:00:51.694Z,61.80
2018-09-12T03:03:20.000Z,62.10
2018-09-12T03:05:48.329Z,62.20
2018-09-12T03:08:16.649Z,62.30
2018-09-12T03:10:45.000Z,61.90
2018-09-12T03:13:13.315Z,62.70
2018-09-12T03:15:41.707Z,62.80
2018-09-12T03:18:10.103Z,62.80
2018-09-12T03:20:38.521Z,62.80
2018-09-12T03:23:06.785Z,63.00
2018-09-12T03:25:35.143Z,63.00
2018-09-12T03:28:03.491Z,63.00
2018-09-12T03:30:31.834Z,63.00
2018-09-12T03:33:00.158Z,63.10
2018-09-12T03:35:28.493Z,63.10
2018-09-12T03:37:56.833Z,64.00
2018-09-12T03:40:25.212Z,63.10
2018-09-12T03:42:53.535Z,63.10
2018-09-12T03:45:21.889Z,63.10
2018-09-12T03:47:50.254Z,63.10
2018-09-12T03:50:18.562Z,63.20
2018-09-12T03:52:46.916Z,63.10
2018-09-12T03:55:15.261Z,63.20
2018-09-12T03:57:43.607Z,63.20
2018-09-12T04:00:11.943Z,63.40
2018-09-12T04:02:40.274Z,63.40
2018-09-12T04:05:08.757Z,63.50
2018-09-12T04:07:37.072Z,63.50
2018-09-12T04:10:05.460Z,63.40
2018-09-12T04:12:33.765Z,63.40
2018-09-12T04:15:02.098Z,63.40
2018-09-12T04:17:35.337Z,63.40
2018-09-12T04:20:03.898Z,63.40
2018-09-12T04:22:32.647Z,63.50
2018-09-12T04:25:00.998Z,63.40
2018-09-12T04:27:29.333Z,64.20
2018-09-12T04:29:57.666Z,63.60
2018-09-12T04:32:26.437Z,63.50
2018-09-12T04:34:54.894Z,63.70
2018-09-12T04:37:23.296Z,63.90
2018-09-12T04:39:51.626Z,63.90
2018-09-12T04:42:19.959Z,63.90
2018-09-12T04:44:48.470Z,64.00
2018-09-12T04:47:16.790Z,64.20
2018-09-12T04:49:45.143Z,64.20
2018-09-12T04:52:13.466Z,64.30
2018-09-12T04:54:41.793Z,64.40
2018-09-12T04:57:10.105Z,64.50
2018-09-12T04:59:38.459Z,64.50
2018-09-12T05:02:06.778Z,64.60
2018-09-12T05:04:35.100Z,64.60
2018-09-12T05:07:03.438Z,64.80
2018-09-12T05:09:31.742Z,64.80
2018-09-12T05:12:00.127Z,64.90
2018-09-12T05:14:28.502Z,65.00
2018-09-12T05:16:56.839Z,65.00
2018-09-12T05:19:25.157Z,65.00
2018-09-12T05:21:53.498Z,64.90
2018-09-12T05:24:21.811Z,65.00
2018-09-12T05:26:50.142Z,65.00
2018-09-12T05:29:18.494Z,65.00
2018-09-12T05:31:46.853Z,65.00
2018-09-12T05:34:15.170Z,65.10
2018-09-12T05:36:43.502Z,65.30
2018-09-12T05:39:11.863Z,65.30
2018-09-12T05:41:40.483Z,65.30
2018-09-12T05:44:08.805Z,65.40
2018-09-12T05:46:37.695Z,65.70
2018-09-12T05:49:06.074Z,65.90
2018-09-12T05:51:34.412Z,66.10
2018-09-12T05:54:02.732Z,66.10
2018-09-12T05:56:31.070Z,66.20
2018-09-12T05:58:59.394Z,66.40
2018-09-12T06:01:27.756Z,66.60
2018-09-12T06:03:56.086Z,67.20
2018-09-12T06:06:24.471Z,66.80
2018-09-12T06:08:52.758Z,66.70
2018-09-12T06:11:21.102Z,66.40
2018-09-12T06:13:49.468Z,66.50
2018-09-12T06:16:17.782Z,66.10
2018-09-12T06:18:46.093Z,66.00
2018-09-12T06:21:14.421Z,65.70
2018-09-12T06:23:42.731Z,65.70
2018-09-12T06:26:11.059Z,65.50
2018-09-12T06:28:39.370Z,65.40
2018-09-12T06:31:07.723Z,65.10
2018-09-12T06:33:36.030Z,64.70
2018-09-12T06:36:04.349Z,64.50
2018-09-12T06:38:32.770Z,64.40
2018-09-12T06:41:01.061Z,64.10
2018-09-12T06:43:29.550Z,63.90
2018-09-12T06:45:57.899Z,63.70
2018-09-12T06:48:26.211Z,63.70
2018-09-12T06:50:54.534Z,63.50
2018-09-12T06:53:22.869Z,63.50
2018-09-12T06:55:51.199Z,63.50
2018-09-12T06:58:19.510Z,63.40
2018-09-12T07:00:47.928Z,63.20
2018-09-12T07:03:16.194Z,63.10
2018-09-12T07:05:44.529Z,62.80
2018-09-12T07:08:12.852Z,63.00
2018-09-12T07:10:41.222Z,62.90
2018-09-12T07:13:09.528Z,62.60
2018-09-12T07:15:37.847Z,62.60
2018-09-12T07:18:06.189Z,62.60
2018-09-12T07:20:34.528Z,62.50
2018-09-12T07:23:02.869Z,62.40
2018-09-12T07:25:31.190Z,62.40
2018-09-12T07:27:59.538Z,62.10
2018-09-12T07:30:27.898Z,62.00
2018-09-12T07:32:56.245Z,62.00
2018-09-12T07:35:24.573Z,61.60
2018-09-12T07:37:52.918Z,61.50
2018-09-12T07:40:21.231Z,61.20
2018-09-12T07:42:49.578Z,61.00
2018-09-12T07:45:17.895Z,61.30
2018-09-12T07:47:46.255Z,60.80
2018-09-12T07:50:15.389Z,60.60
2018-09-12T07:52:43.715Z,60.20
2018-09-12T07:55:12.117Z,60.30
2018-09-12T07:57:40.381Z,59.70
2018-09-12T08:00:08.717Z,59.70
2018-09-12T08:02:37.085Z,59.70
2018-09-12T08:05:05.590Z,59.20
2018-09-12T08:07:33.889Z,58.90
2018-09-12T08:10:02.228Z,58.70
2018-09-12T08:12:30.575Z,58.10
2018-09-12T08:14:58.885Z,58.10
2018-09-12T08:17:27.219Z,59.10
2018-09-12T08:19:55.545Z,57.90
2018-09-12T08:22:23.901Z,58.00
2018-09-12T08:24:52.222Z,57.40
2018-09-12T08:27:20.542Z,57.40
2018-09-12T08:29:48.868Z,57.20
2018-09-12T08:32:17.213Z,57.60
2018-09-12T08:34:45.530Z,57.70
2018-09-12T08:37:13.867Z,57.60
2018-09-12T08:39:42.190Z,57.60
2018-09-12T08:42:10.598Z,57.50
2018-09-12T08:44:38.910Z,57.30
2018-09-12T08:47:07.256Z,57.20
2018-09-12T08:49:35.562Z,57.30
2018-09-12T08:52:03.918Z,57.80
2018-09-12T08:54:32.226Z,57.90
2018-09-12T08:57:00.588Z,57.40
2018-09-12T08:59:28.926Z,57.20
2018-09-12T09:01:57.247Z,56.90
2018-09-12T09:04:25.570Z,56.40
2018-09-12T09:06:53.897Z,56.10
2018-09-12T09:09:22.216Z,55.90
2018-09-12T09:11:50.594Z,55.60
2018-09-12T09:14:18.921Z,55.20
2018-09-12T09:16:47.304Z,55.10
2018-09-12T09:19:15.656Z,54.50
2018-09-12T09:21:43.973Z,54.50
2018-09-12T09:24:12.342Z,54.10
2018-09-12T09:26:40.657Z,54.70
2018-09-12T09:29:09.007Z,54.80
2018-09-12T09:31:37.342Z,54.20
2018-09-12T09:34:05.786Z,54.30
2018-09-12T09:36:34.089Z,53.40
2018-09-12T09:39:02.432Z,53.70
2018-09-12T09:41:30.746Z,53.90
2018-09-12T09:43:59.087Z,53.70
2018-09-12T09:46:27.421Z,53.80
2018-09-12T09:48:55.737Z,54.20
2018-09-12T09:51:24.042Z,54.50
2018-09-12T09:53:52.401Z,54.20
2018-09-12T09:56:20.698Z,53.50
2018-09-12T09:58:49.125Z,53.70
2018-09-12T10:02:23.410Z,53.40
2018-09-12T10:04:57.069Z,53.40
2018-09-12T10:07:30.916Z,53.90
2018-09-12T10:10:06.484Z,52.80
2018-09-12T10:12:35.528Z,52.70
2018-09-12T10:15:04.916Z,52.60
2018-09-12T10:17:34.074Z,52.10
2018-09-12T10:20:02.376Z,51.50
2018-09-12T10:22:31.278Z,51.60
2018-09-12T10:24:59.693Z,52.20
2018-09-12T10:27:28.174Z,51.40
2018-09-12T10:29:56.528Z,51.50
2018-09-12T10:32:24.865Z,52.80
2018-09-12T10:34:53.193Z,51.50
2018-09-12T10:37:21.501Z,51.70
2018-09-12T10:39:49.838Z,50.80
2018-09-12T10:42:18.162Z,51.10
2018-09-12T10:44:46.501Z,51.20
2018-09-12T10:47:14.826Z,50.20
2018-09-12T10:49:43.161Z,49.50
2018-09-12T10:52:11.488Z,49.10
2018-09-12T10:57:14.394Z,49.30
2018-09-12T11:02:17.331Z,48.90
2018-09-12T11:04:45.666Z,49.00
2018-09-12T11:07:13.985Z,48.60
2018-09-12T11:09:42.345Z,49.00
2018-09-12T11:12:10.670Z,48.10
2018-09-12T11:14:38.991Z,46.60
2018-09-12T11:17:07.302Z,46.00
2018-09-12T11:19:35.633Z,45.80
2018-09-12T11:22:03.957Z,44.40
2018-09-12T11:24:32.287Z,45.00
2018-09-12T11:27:00.622Z,45.30
2018-09-12T11:29:28.977Z,44.60
2018-09-12T11:31:57.285Z,44.70
2018-09-12T11:34:25.632Z,44.70
2018-09-12T11:36:53.969Z,45.20
2018-09-12T11:39:22.297Z,43.90
2018-09-12T11:41:50.607Z,43.50
2018-09-12T11:44:18.963Z,42.80
2018-09-12T11:46:47.269Z,42.80
2018-09-12T11:49:15.739Z,42.10
2018-09-12T11:51:43.995Z,42.70
2018-09-12T11:54:12.362Z,41.80
2018-09-12T11:56:40.680Z,41.20
2018-09-12T11:59:09.019Z,40.80
2018-09-12T12:01:37.405Z,40.80
2018-09-12T12:04:05.934Z,41.20
2018-09-12T12:06:34.315Z,40.60
2018-09-12T12:09:02.662Z,40.60
2018-09-12T12:11:30.996Z,40.60
2018-09-12T12:13:59.329Z,40.60
2018-09-12T12:16:27.698Z,38.90
2018-09-12T12:18:56.021Z,38.70
2018-09-12T12:21:24.346Z,39.00
2018-09-12T12:23:52.669Z,38.50
2018-09-12T12:26:21.426Z,38.80
2018-09-12T12:28:49.763Z,38.80
2018-09-12T12:31:18.074Z,39.40
2018-09-12T12:33:46.417Z,38.70
2018-09-12T12:36:14.723Z,37.90
2018-09-12T12:38:43.059Z,37.50
2018-09-12T12:41:11.439Z,37.80
2018-09-12T12:43:39.762Z,38.00
2018-09-12T12:46:08.214Z,38.00
2018-09-12T12:48:36.561Z,38.00
2018-09-12T12:51:04.886Z,37.10
2018-09-12T12:53:33.203Z,36.80
2018-09-12T12:56:01.534Z,36.20
2018-09-12T12:58:29.872Z,36.60
2018-09-12T13:00:58.305Z,36.80
2018-09-12T13:03:26.614Z,36.70
2018-09-12T13:05:54.974Z,36.60
2018-09-12T13:08:23.307Z,36.70
2018-09-12T13:10:51.659Z,36.90
2018-09-12T13:13:20.032Z,36.90
2018-09-12T13:15:48.370Z,36.20
2018-09-12T13:18:16.689Z,36.50
2018-09-12T13:20:45.035Z,36.60
2018-09-12T13:23:13.375Z,36.50
2018-09-12T13:25:41.768Z,36.00
2018-09-12T13:28:10.078Z,35.50
2018-09-12T13:30:38.409Z,35.30
2018-09-12T13:33:06.913Z,35.00
2018-09-12T13:35:35.553Z,34.10
2018-09-12T13:38:03.948Z,34.80
2018-09-12T13:40:32.276Z,34.30
2018-09-12T13:43:00.588Z,35.10
2018-09-12T13:45:28.967Z,37.00
2018-09-12T13:47:57.297Z,37.10
2018-09-12T13:50:25.624Z,37.10
2018-09-12T13:52:53.934Z,36.80
2018-09-12T13:55:22.281Z,36.00
2018-09-12T13:57:50.602Z,36.10
2018-09-12T14:00:18.998Z,35.80
2018-09-12T14:02:47.307Z,35.90
2018-09-12T14:05:15.637Z,36.10
2018-09-12T14:07:43.951Z,36.10
2018-09-12T14:10:12.305Z,36.40
2018-09-12T14:12:40.627Z,36.50
2018-09-12T14:15:08.969Z,36.40
2018-09-12T14:17:37.296Z,36.70
2018-09-12T14:20:05.641Z,36.80
2018-09-12T14:22:33.980Z,36.50
2018-09-12T14:25:02.331Z,36.20
2018-09-12T14:27:30.714Z,37.20
2018-09-12T14:29:59.071Z,36.60
2018-09-12T14:32:27.404Z,36.80
2018-09-12T14:34:55.745Z,37.00
2018-09-12T14:37:24.053Z,37.00
2018-09-12T14:39:52.386Z,37.20
2018-09-12T14:42:20.728Z,37.30
2018-09-12T14:44:49.070Z,37.60
2018-09-12T14:47:17.397Z,37.60
2018-09-12T14:49:45.725Z,38.00
2018-09-12T14:52:15.329Z,38.20
2018-09-12T14:54:43.661Z,38.40
2018-09-12T14:57:11.974Z,38.50
2018-09-12T14:59:40.309Z,39.20
2018-09-12T15:02:08.670Z,40.00
2018-09-12T15:04:36.997Z,40.60
2018-09-12T15:07:05.329Z,41.20
2018-09-12T15:09:33.645Z,41.60
2018-09-12T15:12:01.996Z,41.90
2018-09-12T15:14:30.334Z,42.30
2018-09-12T15:17:01.729Z,42.70
2018-09-12T15:19:30.066Z,43.00
2018-09-12T15:21:58.406Z,43.60
2018-09-12T15:24:26.733Z,43.90
2018-09-12T15:26:55.081Z,44.60
2018-09-12T15:29:23.434Z,44.90
2018-09-12T15:31:51.769Z,45.20
2018-09-12T15:34:20.104Z,45.20
2018-09-12T15:36:48.455Z,45.10
2018-09-12T15:39:16.767Z,45.20
2018-09-12T15:41:45.101Z,45.40
2018-09-12T15:44:13.421Z,46.10
2018-09-12T15:46:41.794Z,45.50
2018-09-12T15:49:10.099Z,45.80
2018-09-12T15:51:38.423Z,46.20
2018-09-12T15:54:06.785Z,46.40
2018-09-12T15:56:35.107Z,46.60
2018-09-12T15:59:03.441Z,46.90
2018-09-12T16:01:31.774Z,47.10
2018-09-12T16:04:00.101Z,47.30
2018-09-12T16:06:28.471Z,47.80
2018-09-12T16:08:56.809Z,48.10
2018-09-12T16:11:25.167Z,48.60
2018-09-12T16:13:53.499Z,48.70
2018-09-12T16:16:21.976Z,48.90
2018-09-12T16:18:50.292Z,49.00
2018-09-12T16:21:18.693Z,49.00
2018-09-12T16:23:47.012Z,49.00
2018-09-12T16:26:15.358Z,49.10
2018-09-12T16:28:43.670Z,49.30
2018-09-12T16:31:12.015Z,49.20
2018-09-12T16:33:40.329Z,49.70
2018-09-12T16:36:08.672Z,49.80
2018-09-12T16:38:40.008Z,50.00
2018-09-12T16:41:08.349Z,50.20
2018-09-12T16:43:36.672Z,50.50
2018-09-12T16:46:04.999Z,50.90
2018-09-12T16:48:33.341Z,51.20
2018-09-12T16:51:01.682Z,51.70
2018-09-12T16:53:29.993Z,51.90
2018-09-12T16:55:58.322Z,52.30
2018-09-12T16:58:26.666Z,52.50
2018-09-12T17:00:55.083Z,52.80
2018-09-12T17:03:23.398Z,53.00
2018-09-12T17:05:51.736Z,53.30
2018-09-12T17:08:20.046Z,53.40
2018-09-12T17:10:48.388Z,53.70
2018-09-12T17:13:16.707Z,54.00
2018-09-12T17:15:45.060Z,54.00
2018-09-12T17:18:13.393Z,54.90
2018-09-12T17:20:41.701Z,54.50
2018-09-12T17:23:10.037Z,54.40
2018-09-12T17:25:38.354Z,54.50
2018-09-12T17:28:06.687Z,54.50
2018-09-12T17:30:34.994Z,54.40
2018-09-12T17:33:03.317Z,54.40
2018-09-12T17:35:31.625Z,54.30
2018-09-12T17:37:59.971Z,54.40
2018-09-12T17:40:28.303Z,54.40
2018-09-12T17:42:56.646Z,54.40
2018-09-12T17:45:24.955Z,54.30
2018-09-12T17:47:53.297Z,54.50
2018-09-12T17:50:21.605Z,54.50
2018-09-12T17:52:49.934Z,54.60
2018-09-12T17:55:18.251Z,54.70
2018-09-12T17:57:46.591Z,55.00
2018-09-12T18:00:14.897Z,55.00
2018-09-12T18:02:43.244Z,55.00
2018-09-12T18:05:11.557Z,55.20
2018-09-12T18:07:39.885Z,55.20
2018-09-12T18:10:08.214Z,55.30
2018-09-12T18:12:36.544Z,55.30
2018-09-12T18:54:44.960Z,58.50
2018-09-12T18:57:13.293Z,58.50
2018-09-12T18:59:41.611Z,58.50
2018-09-12T19:02:09.961Z,58.60
2018-09-12T19:04:38.268Z,58.80
2018-09-12T19:07:07.080Z,59.00
2018-09-12T19:09:35.227Z,59.10
2018-09-12T19:12:03.593Z,59.30
2018-09-12T19:14:31.908Z,59.30
2018-09-12T19:17:00.232Z,59.50
2018-09-12T19:19:28.550Z,59.50
2018-09-12T19:21:56.901Z,59.50
2018-09-12T19:24:25.205Z,59.50
2018-09-12T19:26:53.588Z,59.50
2018-09-12T19:29:21.896Z,59.70
2018-09-12T19:31:50.242Z,59.70
2018-09-12T19:34:18.540Z,59.90
2018-09-12T19:36:46.849Z,59.80
2018-09-12T19:39:15.185Z,59.80
2018-09-12T19:41:43.551Z,60.00
2018-09-12T19:44:11.853Z,60.00
2018-09-12T19:46:40.177Z,60.00
2018-09-12T19:49:08.670Z,60.10
2018-09-12T19:51:36.984Z,60.20
2018-09-12T19:54:05.326Z,60.30
2018-09-12T19:56:33.646Z,60.40
2018-09-12T19:59:01.972Z,60.50
2018-09-12T20:01:30.280Z,60.70
2018-09-12T20:03:58.614Z,61.00
2018-09-12T20:06:26.935Z,60.90
2018-09-12T20:08:55.380Z,61.10
2018-09-12T20:11:23.710Z,61.10
2018-09-12T20:13:52.051Z,61.20
2018-09-12T20:16:20.378Z,61.30
2018-09-12T20:18:48.748Z,61.50
2018-09-12T20:21:17.068Z,61.60
2018-09-12T20:23:45.525Z,61.90
2018-09-12T20:26:13.732Z,62.00
2018-09-12T20:28:43.361Z,62.10
2018-09-12T20:31:11.668Z,62.00
2018-09-12T20:33:41.229Z,62.30
2018-09-12T20:36:09.546Z,62.30
2018-09-12T20:38:37.881Z,62.70
2018-09-12T20:41:06.289Z,62.70
2018-09-12T20:43:34.692Z,63.00
2018-09-12T20:46:03.127Z,63.00
2018-09-12T20:48:31.538Z,63.00
2018-09-12T20:50:59.897Z,63.10
2018-09-12T20:53:28.334Z,63.10
2018-09-12T20:55:56.641Z,63.20
2018-09-12T20:58:24.969Z,63.40
2018-09-12T21:00:53.280Z,63.40
2018-09-12T21:03:21.605Z,63.60
2018-09-12T21:05:49.913Z,63.60
2018-09-12T21:08:18.240Z,63.80
2018-09-12T21:10:46.609Z,63.90
2018-09-12T21:13:14.937Z,63.90
2018-09-12T21:15:43.250Z,63.90
2018-09-12T21:18:11.704Z,64.20
2018-09-12T21:20:40.001Z,64.40
2018-09-12T21:23:08.328Z,64.60
2018-09-12T21:25:36.643Z,64.80
2018-09-12T21:28:04.974Z,65.00
2018-09-12T21:30:33.314Z,65.30
2018-09-12T21:33:01.641Z,65.40
2018-09-12T21:35:29.956Z,65.70
2018-09-12T21:37:58.325Z,65.90
2018-09-12T21:40:26.641Z,66.30
2018-09-12T21:42:54.968Z,66.50
2018-09-12T21:45:23.297Z,66.70
2018-09-12T21:47:51.620Z,67.10
2018-09-12T21:50:19.950Z,67.50
2018-09-12T21:52:48.252Z,68.20
2018-09-12T21:55:16.580Z,68.70
2018-09-12T21:57:44.894Z,69.10
2018-09-12T22:00:13.233Z,70.30
2018-09-12T22:02:41.546Z,70.00
2018-09-12T22:05:09.872Z,70.10
2018-09-12T22:07:38.196Z,70.30
2018-09-12T22:10:06.545Z,70.50
2018-09-12T22:12:34.888Z,70.60
2018-09-12T22:15:03.216Z,70.80
2018-09-12T22:17:31.517Z,70.80
2018-09-12T22:19:59.845Z,71.00
2018-09-12T22:22:28.175Z,71.00
2018-09-12T22:24:56.505Z,71.20
2018-09-12T22:27:24.805Z,71.20
2018-09-12T22:29:53.129Z,71.40
2018-09-12T22:32:21.444Z,71.50
2018-09-12T22:34:49.772Z,71.30
2018-09-12T22:37:18.093Z,71.60
2018-09-12T22:39:46.426Z,71.40
2018-09-12T22:42:14.737Z,70.70
2018-09-12T22:44:43.071Z,70.30
2018-09-12T22:47:11.378Z,70.50
2018-09-12T22:49:39.704Z,70.50
2018-09-12T22:52:08.061Z,70.70
2018-09-12T22:54:36.407Z,70.80
2018-09-12T22:57:04.725Z,70.20
2018-09-12T22:59:33.048Z,70.40
2018-09-12T23:02:01.361Z,70.10
2018-09-12T23:04:29.689Z,70.20
2018-09-12T23:06:58.010Z,70.20
2018-09-12T23:09:26.346Z,69.90
2018-09-12T23:11:54.677Z,69.60
2018-09-12T23:14:23.001Z,69.40
2018-09-12T23:16:51.364Z,69.20
2018-09-12T23:19:19.677Z,69.50
2018-09-12T23:21:47.983Z,69.00
2018-09-12T23:24:16.319Z,68.80
2018-09-12T23:26:44.641Z,69.00
2018-09-12T23:29:13.001Z,69.10
2018-09-12T23:31:41.326Z,69.10
2018-09-12T23:34:09.661Z,68.80
2018-09-12T23:36:37.980Z,68.80
2018-09-12T23:39:09.250Z,68.40
2018-09-12T23:41:37.567Z,68.10
2018-09-12T23:44:06.917Z,67.70
2018-09-12T23:46:35.229Z,67.60
2018-09-12T23:49:03.577Z,67.30
2018-09-12T23:51:31.887Z,67.30
2018-09-12T23:54:00.227Z,67.60
2018-09-12T23:56:28.541Z,67.70
2018-09-12T23:58:56.937Z,67.50
